»·PEaware :: N448RA KBFL-KSMX

N448RA :: KBFL-KSMX

FLIGHT INFORMATION

Flight Status: Arrived
Operator: Privately registered:
United States
More flights under this callsign
Pilot: Scott M. (16181)
Aircraft: Unknown
(DA62)
More flights by this aircraft type
Origin: KBFL Meadows
United States
Destination: KSMX Santa Maria Pub/Capt Hancock
United States
More flights between these airports :: More routes between these airports
Route:
File this flight plan on PilotEdge
Remarks:
Altitude:
(Current/Filed)
6,500ft
Speed:
(Current/Filed)
160kts
Departed: 05-Jan-19 11:20 AM
Arrived: 05-Jan-19 12:00 PM
Distance/Time
Traveled:
76nm/0:40
Distance/Time
To Go:
Arrived

Flight Plot

Page will automatically refresh every two minutes.


Map Options




Map Legend


Flown Route
Filed Route
Departure Airport
Arrival Airport
Navaid (VOR, NDB)
Fix

Horizontal Profiles

Position Reports

Time Latitude Longitude Heading Altitude Ground
Speed
05-Jan-19 11:10 35.429368 -119.046105 226 499ft 0kts
05-Jan-19 11:11 35.429368 -119.046105 226 499ft 0kts
05-Jan-19 11:12 35.429368 -119.046105 226 499ft 0kts
05-Jan-19 11:13 35.429368 -119.046105 226 499ft 0kts
05-Jan-19 11:14 35.429368 -119.046105 226 499ft 0kts
05-Jan-19 11:15 35.429368 -119.046105 226 499ft 0kts
05-Jan-19 11:16 35.428695 -119.046905 221 499ft 10kts
05-Jan-19 11:17 35.425939 -119.044636 183 499ft 7kts
05-Jan-19 11:18 35.425765 -119.044718 216 499ft 0kts
05-Jan-19 11:19 35.428515 -119.049686 314 499ft 71kts
05-Jan-19 11:20 35.447143 -119.077472 285 1020ft 121kts
05-Jan-19 11:21 35.430177 -119.107196 215 1870ft 109kts
05-Jan-19 11:22 35.406376 -119.129819 214 2514ft 115kts
05-Jan-19 11:23 35.386918 -119.165553 237 2499ft 132kts
05-Jan-19 11:24 35.370770 -119.205988 239 2499ft 132kts
05-Jan-19 11:25 35.355424 -119.246797 240 2499ft 132kts
05-Jan-19 11:26 35.339934 -119.288520 240 2501ft 135kts
05-Jan-19 11:27 35.324451 -119.330756 240 2499ft 135kts
05-Jan-19 11:28 35.308960 -119.372719 240 2552ft 133kts
05-Jan-19 11:29 35.294413 -119.412094 239 2932ft 123kts
05-Jan-19 11:30 35.280353 -119.449943 238 3323ft 122kts
05-Jan-19 11:31 35.266338 -119.487682 237 3819ft 118kts
05-Jan-19 11:32 35.253218 -119.523051 236 4496ft 113kts
05-Jan-19 11:33 35.240397 -119.557462 235 5176ft 112kts
05-Jan-19 11:34 35.227698 -119.591543 234 5858ft 110kts
05-Jan-19 11:35 35.214885 -119.625752 234 6485ft 115kts
05-Jan-19 11:36 35.200284 -119.664482 236 6500ft 137kts
05-Jan-19 11:37 35.184180 -119.707637 236 6498ft 140kts
05-Jan-19 11:38 35.167888 -119.751166 236 6497ft 140kts
05-Jan-19 11:39 35.151611 -119.794557 236 6498ft 140kts
05-Jan-19 11:40 35.135298 -119.837979 236 6495ft 140kts
05-Jan-19 11:41 35.119023 -119.881091 236 6497ft 139kts
05-Jan-19 11:42 35.102507 -119.924587 236 6462ft 143kts
05-Jan-19 11:43 35.085682 -119.969047 236 5899ft 145kts
05-Jan-19 11:44 35.068797 -120.013831 236 5182ft 144kts
05-Jan-19 11:45 35.051768 -120.058640 243 4492ft 149kts
05-Jan-19 11:46 35.035037 -120.103450 243 4461ft 141kts
05-Jan-19 11:47 35.019038 -120.146028 236 4461ft 133kts
05-Jan-19 11:48 35.003883 -120.185574 236 4457ft 127kts
05-Jan-19 11:49 34.987816 -120.225264 240 4011ft 136kts
05-Jan-19 11:50 34.968256 -120.261301 236 3567ft 133kts
05-Jan-19 11:51 34.954657 -120.301988 243 3016ft 128kts
05-Jan-19 11:52 34.939603 -120.340471 231 2155ft 120kts
05-Jan-19 11:53 34.924738 -120.377466 238 1565ft 103kts
05-Jan-19 11:54 34.913190 -120.405349 226 1369ft 91kts
05-Jan-19 11:55 34.901505 -120.432573 268 1079ft 105kts
05-Jan-19 11:56 34.922924 -120.458637 333 1058ft 113kts
05-Jan-19 11:57 34.929130 -120.482654 205 958ft 76kts
05-Jan-19 11:58 34.912916 -120.469802 137 443ft 70kts
05-Jan-19 11:59 34.905397 -120.460961 126 265ft 9kts
05-Jan-19 12:00 34.905425 -120.459266 50 265ft 0kts
05-Jan-19 12:01 34.903603 -120.456226 137 265ft 15kts
05-Jan-19 12:02 34.901537 -120.453233 22 265ft 8kts
05-Jan-19 12:03 34.902022 -120.452520 44 265ft 0kts

Navigation Log

Ident Type
Flight plan parsing failed, navigation log unavailable